createdAt,value
2018-08-28T00:00:14.892Z,73.68
2018-08-28T00:02:47.585Z,73.92
2018-08-28T00:05:22.086Z,74.50
2018-08-28T00:07:55.114Z,75.31
2018-08-28T00:10:27.610Z,75.43
2018-08-28T00:13:02.843Z,75.72
2018-08-28T00:15:35.823Z,76.44
2018-08-28T00:18:09.263Z,76.12
2018-08-28T00:20:41.996Z,76.41
2018-08-28T00:23:14.588Z,76.56
2018-08-28T00:25:47.348Z,76.70
2018-08-28T00:28:20.869Z,76.76
2018-08-28T00:30:53.623Z,76.83
2018-08-28T00:33:27.044Z,77.27
2018-08-28T00:35:59.945Z,77.37
2018-08-28T00:38:33.185Z,77.30
2018-08-28T00:41:07.813Z,77.55
2018-08-28T00:43:41.893Z,78.31
2018-08-28T00:46:14.809Z,78.32
2018-08-28T00:48:48.525Z,78.68
2018-08-28T00:51:21.340Z,78.73
2018-08-28T00:53:54.024Z,78.57
2018-08-28T00:56:29.326Z,78.40
2018-08-28T00:59:04.061Z,78.29
2018-08-28T01:01:36.561Z,78.27
2018-08-28T01:04:09.141Z,78.28
2018-08-28T01:06:41.716Z,78.19
2018-08-28T01:09:14.321Z,77.93
2018-08-28T01:11:47.102Z,77.79
2018-08-28T01:14:19.693Z,77.84
2018-08-28T01:16:52.345Z,77.92
2018-08-28T01:19:26.360Z,77.84
2018-08-28T01:21:59.845Z,77.80
2018-08-28T01:24:33.865Z,77.45
2018-08-28T01:27:06.628Z,77.30
2018-08-28T01:29:40.207Z,77.22
2018-08-28T01:32:12.772Z,77.24
2018-08-28T01:34:45.666Z,77.23
2018-08-28T01:37:18.248Z,77.28
2018-08-28T01:39:50.741Z,77.24
2018-08-28T01:42:25.097Z,77.10
2018-08-28T01:44:57.606Z,77.20
2018-08-28T01:47:31.475Z,77.37
2018-08-28T01:50:09.661Z,77.37
2018-08-28T01:52:42.532Z,77.56
2018-08-28T01:55:24.538Z,77.80
2018-08-28T01:57:57.448Z,77.97
2018-08-28T02:00:40.608Z,78.17
2018-08-28T02:03:13.537Z,78.37
2018-08-28T02:05:46.439Z,78.61
2018-08-28T02:08:19.157Z,78.85
2018-08-28T02:10:52.835Z,78.77
2018-08-28T02:13:25.958Z,79.13
2018-08-28T02:15:58.369Z,79.50
2018-08-28T02:18:30.969Z,79.75
2018-08-28T02:21:09.780Z,79.85
2018-08-28T02:23:42.488Z,79.79
2018-08-28T02:26:15.828Z,80.36
2018-08-28T02:28:48.456Z,80.58
2018-08-28T02:31:31.590Z,80.71
2018-08-28T02:34:07.779Z,80.80
2018-08-28T02:39:57.849Z,81.26
2018-08-28T02:42:30.979Z,81.47
2018-08-28T02:45:05.481Z,81.72
2018-08-28T02:47:42.239Z,82.11
2018-08-28T02:50:15.311Z,81.93
2018-08-28T02:52:47.757Z,81.71
2018-08-28T02:58:31.037Z,82.03
2018-08-28T03:01:03.828Z,83.00
2018-08-28T03:03:36.582Z,83.11
2018-08-28T03:06:09.188Z,83.76
2018-08-28T03:08:43.445Z,84.19
2018-08-28T03:11:15.855Z,84.13
2018-08-28T03:13:48.385Z,84.77
2018-08-28T03:16:40.881Z,85.01
2018-08-28T03:19:13.347Z,85.35
2018-08-28T03:21:46.214Z,85.39
2018-08-28T03:24:20.376Z,85.18
2018-08-28T03:26:52.969Z,85.29
2018-08-28T03:29:25.540Z,85.67
2018-08-28T03:32:14.890Z,86.10
2018-08-28T03:34:57.753Z,85.80
2018-08-28T03:37:30.299Z,86.05
2018-08-28T03:40:30.977Z,86.29
2018-08-28T03:43:14.358Z,87.23
2018-08-28T03:45:46.937Z,87.14
2018-08-28T03:48:19.999Z,87.19
2018-08-28T03:54:03.634Z,87.42
2018-08-28T03:56:37.572Z,87.64
2018-08-28T03:59:12.376Z,87.86
2018-08-28T04:01:45.227Z,87.95
2018-08-28T04:04:20.337Z,88.13
2018-08-28T04:10:04.240Z,90.05
2018-08-28T04:12:37.080Z,90.50
2018-08-28T04:15:23.517Z,90.80
2018-08-28T04:18:18.135Z,90.65
2018-08-28T04:24:00.693Z,89.55
2018-08-28T04:26:44.997Z,89.60
2018-08-28T04:29:18.752Z,89.94
2018-08-28T04:31:51.588Z,90.25
2018-08-28T04:34:24.117Z,90.49
2018-08-28T04:36:56.961Z,90.61
2018-08-28T04:39:29.476Z,90.58
2018-08-28T04:42:02.229Z,90.49
2018-08-28T04:44:35.081Z,90.53
2018-08-28T04:47:07.916Z,90.75
2018-08-28T04:49:40.340Z,91.00
2018-08-28T04:52:13.169Z,91.05
2018-08-28T04:54:46.808Z,91.09
2018-08-28T04:57:19.418Z,91.14
2018-08-28T04:59:52.361Z,91.09
2018-08-28T05:02:33.001Z,91.24
2018-08-28T05:05:09.061Z,91.41
2018-08-28T05:07:42.551Z,91.60
2018-08-28T05:10:15.141Z,91.73
2018-08-28T05:12:48.589Z,91.79
2018-08-28T05:15:21.588Z,91.83
2018-08-28T05:17:54.357Z,91.91
2018-08-28T05:20:28.501Z,91.85
2018-08-28T05:23:04.001Z,91.85
2018-08-28T05:25:36.553Z,92.03
2018-08-28T05:28:09.498Z,92.05
2018-08-28T05:30:42.347Z,91.93
2018-08-28T05:33:15.107Z,91.97
2018-08-28T05:35:48.995Z,91.98
2018-08-28T05:38:22.524Z,92.13
2018-08-28T05:40:56.148Z,92.24
2018-08-28T05:43:28.784Z,92.39
2018-08-28T05:46:03.070Z,92.64
2018-08-28T05:48:36.885Z,92.83
2018-08-28T05:51:09.649Z,92.88
2018-08-28T05:53:42.712Z,93.12
2018-08-28T05:56:15.442Z,93.22
2018-08-28T05:58:49.089Z,93.31
2018-08-28T06:01:24.307Z,93.34
2018-08-28T06:03:57.352Z,93.53
2018-08-28T06:06:30.148Z,93.69
2018-08-28T06:09:05.212Z,93.80
2018-08-28T06:11:38.692Z,93.68
2018-08-28T06:14:13.368Z,93.50
2018-08-28T06:16:48.564Z,93.16
2018-08-28T06:19:23.239Z,92.82
2018-08-28T06:21:58.708Z,92.49
2018-08-28T06:24:31.600Z,92.13
2018-08-28T06:27:05.608Z,91.76
2018-08-28T06:29:38.396Z,91.45
2018-08-28T06:32:12.423Z,91.09
2018-08-28T06:34:45.296Z,90.54
2018-08-28T06:37:19.014Z,90.15
2018-08-28T06:39:52.352Z,89.79
2018-08-28T06:42:25.013Z,89.46
2018-08-28T06:44:58.089Z,88.94
2018-08-28T06:47:34.889Z,88.25
2018-08-28T06:50:09.290Z,87.75
2018-08-28T06:52:42.033Z,87.47
2018-08-28T06:55:16.696Z,87.27
2018-08-28T06:57:49.232Z,86.56
2018-08-28T07:00:23.632Z,85.84
2018-08-28T07:02:57.283Z,84.71
2018-08-28T07:05:31.358Z,84.35
2018-08-28T07:08:04.603Z,83.90
2018-08-28T07:10:37.302Z,83.27
2018-08-28T07:13:10.649Z,82.45
2018-08-28T07:15:44.626Z,81.85
2018-08-28T07:18:17.253Z,81.71
2018-08-28T07:27:32.805Z,79.85
2018-08-28T07:30:07.901Z,79.13
2018-08-28T07:32:42.753Z,78.70
2018-08-28T07:35:16.194Z,78.39
2018-08-28T07:37:48.666Z,77.98
2018-08-28T07:40:22.553Z,77.75
2018-08-28T07:42:55.046Z,77.27
2018-08-28T07:45:27.927Z,77.45
2018-08-28T07:48:02.988Z,73.23
2018-08-28T07:50:35.442Z,69.58
2018-08-28T07:53:09.777Z,66.19
2018-08-28T07:55:46.840Z,63.82
2018-08-28T07:58:19.836Z,62.73
2018-08-28T08:00:53.197Z,61.56
2018-08-28T08:03:25.974Z,60.49
2018-08-28T08:06:01.075Z,60.32
2018-08-28T08:08:34.973Z,59.17
2018-08-28T08:11:17.272Z,58.86
2018-08-28T08:13:51.977Z,57.87
2018-08-28T08:16:24.657Z,58.38
2018-08-28T08:18:57.693Z,58.08
2018-08-28T08:21:30.197Z,57.58
2018-08-28T08:24:05.042Z,56.50
2018-08-28T08:26:38.510Z,56.25
2018-08-28T08:29:11.737Z,55.68
2018-08-28T08:31:48.176Z,54.54
2018-08-28T08:34:21.197Z,54.30
2018-08-28T08:36:55.249Z,54.29
2018-08-28T08:39:30.896Z,54.76
2018-08-28T08:42:05.474Z,55.37
2018-08-28T08:44:39.278Z,54.14
2018-08-28T08:47:14.638Z,54.86
2018-08-28T08:49:47.540Z,55.39
2018-08-28T08:52:20.438Z,55.52
2018-08-28T08:54:53.108Z,53.99
2018-08-28T08:57:26.245Z,52.05
2018-08-28T09:00:00.009Z,51.08
2018-08-28T09:02:40.474Z,50.40
2018-08-28T09:05:14.454Z,48.90
2018-08-28T09:07:53.972Z,48.14
2018-08-28T09:10:32.350Z,47.73
2018-08-28T09:13:05.567Z,47.98
2018-08-28T09:15:43.984Z,48.19
2018-08-28T09:18:20.153Z,47.62
2018-08-28T09:20:54.845Z,47.04
2018-08-28T09:23:34.986Z,46.25
2018-08-28T09:26:08.741Z,46.55
2018-08-28T09:28:50.689Z,46.12
2018-08-28T09:31:30.278Z,46.60
2018-08-28T09:34:05.731Z,46.25
2018-08-28T09:36:40.669Z,44.47
2018-08-28T09:39:16.384Z,44.92
2018-08-28T09:41:49.865Z,44.75
2018-08-28T09:44:26.214Z,43.32
2018-08-28T09:47:00.369Z,41.79
2018-08-28T09:49:33.853Z,41.62
2018-08-28T09:52:13.253Z,42.23
2018-08-28T09:54:46.527Z,42.31
2018-08-28T09:57:19.021Z,42.28
2018-08-28T09:59:53.533Z,41.46
2018-08-28T10:02:34.105Z,40.96
2018-08-28T10:05:07.979Z,40.58
2018-08-28T10:07:42.973Z,40.08
2018-08-28T10:10:15.722Z,39.13
2018-08-28T10:12:48.425Z,36.33
2018-08-28T10:15:21.530Z,37.13
2018-08-28T10:17:55.240Z,37.05
2018-08-28T10:20:28.453Z,35.64
2018-08-28T10:23:03.463Z,35.07
2018-08-28T10:25:38.649Z,35.31
2018-08-28T10:28:13.328Z,35.90
2018-08-28T10:30:47.809Z,37.32
2018-08-28T10:33:22.727Z,38.06
2018-08-28T10:35:58.714Z,39.14
2018-08-28T10:38:34.583Z,40.00
2018-08-28T10:41:08.750Z,39.58
2018-08-28T10:43:43.735Z,38.40
2018-08-28T10:46:20.937Z,37.74
2018-08-28T10:48:54.294Z,37.93
2018-08-28T10:51:31.160Z,37.55
2018-08-28T10:54:03.741Z,37.53
2018-08-28T10:56:39.184Z,38.35
2018-08-28T10:59:14.708Z,38.06
2018-08-28T11:01:55.501Z,36.70
2018-08-28T11:04:28.019Z,37.01
2018-08-28T11:07:03.230Z,36.93
2018-08-28T11:09:37.850Z,36.89
2018-08-28T11:12:11.181Z,35.97
2018-08-28T11:14:46.980Z,35.07
2018-08-28T11:17:21.085Z,35.62
2018-08-28T11:19:56.329Z,36.33
2018-08-28T11:22:30.575Z,37.00
2018-08-28T11:25:05.749Z,37.54
2018-08-28T11:27:39.198Z,37.30
2018-08-28T11:30:15.116Z,37.22
2018-08-28T11:32:55.242Z,37.42
2018-08-28T11:35:29.446Z,37.68
2018-08-28T11:38:02.614Z,37.31
2018-08-28T11:40:39.411Z,35.95
2018-08-28T11:43:16.614Z,35.75
2018-08-28T11:45:53.989Z,35.02
2018-08-28T11:48:28.462Z,34.36
2018-08-28T12:45:39.314Z,32.58
2018-08-28T12:48:14.082Z,31.82
2018-08-28T12:50:50.759Z,31.47
2018-08-28T12:53:31.383Z,31.52
2018-08-28T12:56:05.186Z,31.30
2018-08-28T12:58:41.632Z,32.48
2018-08-28T13:02:10.258Z,33.25
2018-08-28T13:05:27.929Z,34.08
2018-08-28T13:08:14.322Z,33.95
2018-08-28T13:10:50.409Z,33.03
2018-08-28T13:13:29.757Z,33.06
2018-08-28T13:16:03.945Z,32.52
2018-08-28T13:18:38.597Z,33.40
2018-08-28T13:21:13.482Z,33.61
2018-08-28T13:23:49.241Z,32.96
2018-08-28T13:26:24.058Z,32.16
2018-08-28T13:42:28.285Z,30.26
2018-08-28T13:45:08.046Z,30.95
2018-08-28T13:58:09.238Z,29.18
2018-08-28T14:00:46.382Z,28.84
2018-08-28T14:03:21.614Z,28.48
2018-08-28T14:05:56.913Z,28.17
2018-08-28T14:08:31.445Z,28.19
2018-08-28T14:11:05.456Z,27.70
2018-08-28T14:13:59.069Z,27.84
2018-08-28T14:16:44.957Z,27.65
2018-08-28T14:19:21.152Z,27.09
2018-08-28T14:21:53.578Z,26.65
2018-08-28T14:24:29.359Z,26.87
2018-08-28T14:27:03.558Z,26.67
2018-08-28T14:29:37.023Z,26.71
2018-08-28T14:32:12.225Z,25.90
2018-08-28T14:34:48.233Z,25.66
2018-08-28T14:37:37.988Z,25.69
2018-08-28T14:40:11.662Z,26.85
2018-08-28T14:42:51.778Z,27.16
2018-08-28T14:45:30.773Z,27.80
2018-08-28T14:48:04.906Z,27.74
2018-08-28T14:50:41.319Z,27.46
2018-08-28T14:53:17.290Z,27.45
2018-08-28T14:55:53.041Z,27.39
2018-08-28T14:58:29.621Z,27.55
2018-08-28T15:01:03.626Z,26.76
2018-08-28T15:03:43.088Z,27.64
2018-08-28T15:06:18.021Z,27.88
2018-08-28T15:08:53.782Z,27.71
2018-08-28T15:11:31.666Z,27.99
2018-08-28T15:14:05.117Z,27.40
2018-08-28T15:16:39.465Z,26.86
2018-08-28T15:19:12.720Z,25.70
2018-08-28T15:21:46.490Z,25.76
2018-08-28T15:24:22.514Z,25.51
2018-08-28T15:26:55.237Z,25.37
2018-08-28T15:29:31.195Z,25.15
2018-08-28T15:32:04.852Z,25.41
2018-08-28T15:34:41.201Z,25.91
2018-08-28T15:37:15.872Z,25.55
2018-08-28T15:39:49.424Z,25.25
2018-08-28T15:42:23.104Z,25.55
2018-08-28T15:44:58.153Z,26.20
2018-08-28T15:47:31.782Z,26.52
2018-08-28T15:50:07.929Z,26.60
2018-08-28T15:52:41.574Z,26.60
2018-08-28T15:55:19.847Z,26.35
2018-08-28T15:57:58.523Z,25.90
2018-08-28T16:00:33.850Z,26.08
2018-08-28T16:03:13.776Z,24.70
2018-08-28T16:05:50.755Z,25.64
2018-08-28T16:08:30.572Z,25.27
2018-08-28T16:11:04.028Z,25.09
2018-08-28T16:13:40.485Z,25.01
2018-08-28T16:16:15.782Z,25.06
2018-08-28T16:18:50.069Z,25.15
2018-08-28T16:21:37.700Z,25.66
2018-08-28T16:24:13.772Z,25.73
2018-08-28T16:26:46.340Z,25.36
2018-08-28T16:29:20.378Z,25.66
2018-08-28T16:31:53.993Z,26.15
2018-08-28T16:34:27.645Z,26.60
2018-08-28T16:37:01.848Z,26.97
2018-08-28T16:39:36.743Z,27.06
2018-08-28T16:42:10.312Z,26.96
2018-08-28T16:44:57.813Z,27.19
2018-08-28T16:47:31.969Z,27.51
2018-08-28T16:50:04.669Z,27.60
2018-08-28T16:52:39.574Z,27.73
2018-08-28T16:55:16.373Z,27.83
2018-08-28T16:57:51.132Z,27.52
2018-08-28T17:00:29.854Z,27.79
2018-08-28T17:03:04.233Z,28.06
2018-08-28T17:05:39.042Z,28.09
2018-08-28T17:08:21.107Z,28.30
2018-08-28T17:10:57.926Z,28.54
2018-08-28T17:13:53.241Z,28.96
2018-08-28T17:16:39.986Z,29.32
2018-08-28T17:19:15.038Z,30.11
2018-08-28T17:21:59.590Z,30.75
2018-08-28T17:27:10.422Z,31.63
2018-08-28T17:29:47.520Z,32.16
2018-08-28T17:32:20.414Z,32.80
2018-08-28T17:34:53.841Z,33.30
2018-08-28T17:37:34.066Z,33.86
2018-08-28T17:40:08.607Z,34.51
2018-08-28T17:42:43.772Z,34.92
2018-08-28T17:45:18.793Z,35.77
2018-08-28T17:47:53.822Z,36.33
2018-08-28T17:50:31.296Z,37.02
2018-08-28T17:53:05.381Z,37.67
2018-08-28T17:55:39.093Z,38.23
2018-08-28T17:58:18.627Z,38.75
2018-08-28T18:00:53.345Z,39.57
2018-08-28T18:03:29.968Z,41.11
2018-08-28T18:06:02.635Z,41.22
2018-08-28T18:08:37.273Z,41.83
2018-08-28T18:11:15.290Z,42.36
2018-08-28T18:13:49.727Z,42.87
2018-08-28T18:16:24.212Z,43.58
2018-08-28T18:19:02.394Z,44.32
2018-08-28T18:21:35.522Z,44.86
2018-08-28T18:24:11.107Z,45.89
2018-08-28T18:26:45.164Z,46.53
2018-08-28T18:29:23.000Z,47.89
2018-08-28T18:31:59.464Z,47.74
2018-08-28T18:34:37.989Z,48.98
2018-08-28T18:37:10.982Z,50.01
2018-08-28T18:39:45.061Z,50.51
2018-08-28T18:42:19.759Z,50.75
2018-08-28T18:44:54.648Z,51.14
2018-08-28T18:47:31.698Z,51.86
2018-08-28T18:50:06.393Z,52.03
2018-08-28T18:52:41.028Z,52.38
2018-08-28T18:55:14.450Z,52.98
2018-08-28T18:57:47.297Z,53.43
2018-08-28T19:00:22.709Z,56.26
2018-08-28T19:03:00.954Z,57.40
2018-08-28T19:05:35.118Z,59.77
2018-08-28T19:08:11.265Z,61.14
2018-08-28T19:10:49.353Z,62.13
2018-08-28T19:13:23.726Z,62.29
2018-08-28T19:16:01.159Z,61.66
2018-08-28T19:18:39.217Z,61.64
2018-08-28T19:21:13.208Z,63.17
2018-08-28T19:23:51.429Z,62.68
2018-08-28T19:26:32.438Z,62.50
2018-08-28T19:29:07.918Z,64.10
2018-08-28T19:31:49.926Z,63.71
2018-08-28T19:34:28.596Z,63.71
2018-08-28T19:37:09.893Z,64.28
2018-08-28T19:39:44.167Z,64.26
2018-08-28T19:42:18.645Z,65.60
2018-08-28T19:44:53.940Z,65.33
2018-08-28T19:47:28.281Z,65.22
2018-08-28T19:50:01.623Z,65.79
2018-08-28T19:52:36.769Z,65.90
2018-08-28T19:55:14.287Z,65.81
2018-08-28T19:57:52.070Z,66.05
2018-08-28T20:00:27.625Z,66.28
2018-08-28T20:03:03.231Z,66.86
2018-08-28T20:05:41.428Z,67.33
2018-08-28T20:08:17.728Z,67.54
2018-08-28T20:10:57.216Z,67.61
2018-08-28T20:13:32.612Z,67.93
2018-08-28T20:16:14.962Z,68.55
2018-08-28T20:18:50.245Z,68.88
2018-08-28T20:21:24.215Z,68.59
2018-08-28T20:23:57.176Z,68.52
2018-08-28T20:26:32.835Z,68.87
2018-08-28T20:29:08.067Z,69.18
2018-08-28T20:31:44.983Z,69.04
2018-08-28T20:34:21.243Z,69.51
2018-08-28T20:36:55.071Z,69.38
2018-08-28T20:39:44.911Z,69.54
2018-08-28T20:42:26.463Z,70.03
2018-08-28T20:45:05.475Z,69.88
2018-08-28T20:47:40.962Z,69.89
2018-08-28T20:50:22.741Z,69.91
2018-08-28T20:52:55.810Z,70.08
2018-08-28T20:55:29.800Z,70.03
2018-08-28T20:58:07.630Z,70.63
2018-08-28T21:00:41.631Z,70.72
2018-08-28T21:03:14.496Z,71.35
2018-08-28T21:05:48.660Z,71.12
2018-08-28T21:08:22.607Z,71.29
2018-08-28T21:10:56.981Z,71.37
2018-08-28T21:13:30.467Z,71.38
2018-08-28T21:16:03.356Z,71.35
2018-08-28T21:18:35.865Z,71.76
2018-08-28T21:21:09.969Z,71.69
2018-08-28T21:23:45.460Z,72.05
2018-08-28T21:26:17.941Z,73.09
2018-08-28T21:28:53.505Z,73.10
2018-08-28T21:31:27.047Z,72.94
2018-08-28T21:34:00.313Z,73.17
2018-08-28T21:36:42.786Z,73.19
2018-08-28T21:39:19.833Z,73.27
2018-08-28T21:41:55.540Z,74.23
2018-08-28T21:44:30.436Z,74.23
2018-08-28T21:47:04.624Z,74.31
2018-08-28T21:49:37.657Z,73.77
2018-08-28T21:52:12.522Z,73.32
2018-08-28T21:54:46.746Z,73.19
2018-08-28T21:57:21.805Z,73.45
2018-08-28T21:59:59.360Z,73.52
2018-08-28T22:02:37.206Z,73.29
2018-08-28T22:05:10.147Z,72.89
2018-08-28T22:07:45.115Z,72.47
2018-08-28T22:10:19.312Z,71.99
2018-08-28T22:12:53.489Z,70.71
2018-08-28T22:15:26.978Z,70.07
2018-08-28T22:18:03.424Z,68.89
2018-08-28T22:20:36.253Z,68.17
2018-08-28T22:23:10.626Z,67.38
2018-08-28T22:25:44.308Z,66.87
2018-08-28T22:28:18.028Z,66.35
2018-08-28T22:30:53.453Z,65.89
2018-08-28T22:33:26.802Z,65.72
2018-08-28T22:35:59.699Z,65.54
2018-08-28T22:38:32.695Z,65.12
2018-08-28T22:41:05.560Z,65.00
2018-08-28T22:43:38.904Z,64.84
2018-08-28T22:46:12.284Z,64.41
2018-08-28T22:48:46.570Z,63.99
2018-08-28T22:51:20.298Z,63.73
2018-08-28T22:53:53.254Z,63.65
2018-08-28T22:56:26.313Z,63.54
2018-08-28T22:58:58.865Z,63.29
2018-08-28T23:01:33.445Z,63.08
2018-08-28T23:04:07.471Z,62.81
2018-08-28T23:06:50.142Z,62.64
2018-08-28T23:09:24.181Z,62.65
2018-08-28T23:11:59.140Z,62.71
2018-08-28T23:14:32.993Z,62.67
2018-08-28T23:17:10.571Z,62.73
2018-08-28T23:19:45.783Z,62.57
2018-08-28T23:22:19.583Z,62.43
2018-08-28T23:24:53.736Z,62.25
2018-08-28T23:27:26.741Z,62.10
2018-08-28T23:30:00.351Z,61.96
2018-08-28T23:32:34.960Z,61.71
2018-08-28T23:35:08.160Z,61.56
2018-08-28T23:37:40.745Z,61.66
2018-08-28T23:40:17.707Z,61.77
2018-08-28T23:42:52.020Z,61.80
2018-08-28T23:45:26.477Z,61.91
2018-08-28T23:47:59.396Z,62.00
2018-08-28T23:50:32.723Z,62.40
2018-08-28T23:53:05.196Z,62.49
2018-08-28T23:55:39.048Z,62.71
2018-08-28T23:58:11.607Z,62.75
